Time;durP1;ratioP1;P1;durP2;ratioP2;P2;SDS_P1;SDS_P2;PMS_P1;PMS_P2;Temp;Humidity;BMP_temperature;BMP_pressure;BME280_temperature;BME280_humidity;BME280_pressure;Samples;Min_cycle;Max_cycle;Signal;HPM_P1;HPM_P2
2021/09/30 00:00:12;;;;;;;22.27;15.85;;;;;;;13.70;100.00;93794.97;5071303;28;20047;-80
2021/09/30 00:02:39;;;;;;;19.25;14.50;;;;;;;13.72;100.00;93795.53;5071532;28;21214;-80
2021/09/30 00:05:09;;;;;;;20.38;15.38;;;;;;;13.73;100.00;93791.94;5071566;28;20044;-80
2021/09/30 00:07:36;;;;;;;18.45;14.95;;;;;;;13.76;100.00;93794.09;5071608;28;20052;-80
2021/09/30 00:10:04;;;;;;;18.60;14.50;;;;;;;13.63;100.00;93775.16;5071608;28;20052;-80
2021/09/30 00:12:33;;;;;;;18.30;14.50;;;;;;;13.75;100.00;93787.38;5070565;28;20500;-80
2021/09/30 00:15:05;;;;;;;17.00;14.38;;;;;;;13.74;100.00;93783.19;5071488;28;20063;-80
2021/09/30 00:17:53;;;;;;;17.02;14.50;;;;;;;13.75;100.00;93793.31;5071280;28;20052;-80
2021/09/30 00:34:09;;;;;;;17.95;14.23;;;;;;;13.63;100.00;93782.91;5070529;28;20158;-81
2021/09/30 00:42:37;;;;;;;16.42;13.52;;;;;;;13.29;100.00;93779.03;5026893;28;20110;-80
2021/09/30 00:45:28;;;;;;;19.00;14.48;;;;;;;13.25;100.00;93780.44;5016966;28;20044;-80
2021/09/30 00:48:01;;;;;;;17.77;14.23;;;;;;;13.10;100.00;93751.41;5045849;28;20048;-80
2021/09/30 00:50:32;;;;;;;15.70;12.35;;;;;;;13.28;100.00;93773.06;5059035;28;20041;-80
2021/09/30 00:53:15;;;;;;;15.48;13.02;;;;;;;13.31;100.00;93785.56;5070816;28;20102;-80
2021/09/30 00:56:05;;;;;;;15.40;11.95;;;;;;;13.25;100.00;93763.19;5067607;28;20071;-80
2021/09/30 01:18:46;;;;;;;15.15;12.23;;;;;;;13.22;100.00;93745.53;5070091;28;20103;-80
2021/09/30 01:46:58;;;;;;;18.15;14.23;;;;;;;12.34;100.00;93763.41;5069544;28;20170;-80
2021/09/30 02:20:08;;;;;;;32.67;22.75;;;;;;;12.62;100.00;93770.78;5071014;28;20415;-80
2021/09/30 02:22:54;;;;;;;10.98;8.98;;;;;;;12.42;100.00;93763.19;5073204;28;20075;-80
2021/09/30 02:40:00;;;;;;;10.40;8.38;;;;;;;12.73;100.00;93761.59;5068923;28;20105;-81
2021/09/30 02:59:27;;;;;;;9.00;7.85;;;;;;;13.02;100.00;93799.88;5068396;28;20117;-81
2021/09/30 03:01:57;;;;;;;10.20;7.75;;;;;;;13.00;100.00;93792.34;5068666;28;20514;-81
2021/09/30 03:04:24;;;;;;;8.98;7.35;;;;;;;13.04;100.00;93788.34;5069569;28;20198;-82
2021/09/30 03:06:55;;;;;;;8.70;7.22;;;;;;;13.12;100.00;93796.81;5072414;28;20383;-82
2021/09/30 03:09:22;;;;;;;10.18;8.18;;;;;;;13.14;100.00;93800.75;5072323;28;20411;-82
2021/09/30 03:11:52;;;;;;;8.98;7.45;;;;;;;13.18;100.00;93803.72;5072662;28;20045;-82
2021/09/30 03:14:21;;;;;;;11.07;7.75;;;;;;;13.10;100.00;93804.75;5072469;28;20048;-81
2021/09/30 03:16:50;;;;;;;9.27;7.47;;;;;;;13.17;100.00;93800.34;5072074;28;20519;-81
2021/09/30 03:19:30;;;;;;;8.57;7.63;;;;;;;13.17;100.00;93796.97;5072383;28;20053;-81
2021/09/30 03:24:43;;;;;;;9.00;8.00;;;;;;;12.88;100.00;93779.34;5070329;28;20052;-82
2021/09/30 03:27:10;;;;;;;10.23;8.45;;;;;;;12.80;100.00;93788.13;5072597;28;20102;-81
2021/09/30 03:29:37;;;;;;;9.80;8.32;;;;;;;12.77;100.00;93788.53;5072273;28;20449;-81
2021/09/30 03:32:07;;;;;;;10.38;8.25;;;;;;;12.62;100.00;93785.44;5071757;28;20053;-80
2021/09/30 03:34:34;;;;;;;12.05;10.85;;;;;;;12.59;100.00;93788.47;5072000;28;20090;-81
2021/09/30 03:37:04;;;;;;;13.02;10.43;;;;;;;12.36;100.00;93784.63;5071834;28;20051;-81
2021/09/30 03:39:31;;;;;;;13.75;11.38;;;;;;;12.33;100.00;93782.44;5071997;28;20060;-81
2021/09/30 03:41:59;;;;;;;13.82;9.63;;;;;;;12.12;100.00;93768.84;5071776;28;20049;-81
2021/09/30 03:44:27;;;;;;;12.48;10.40;;;;;;;12.34;100.00;93781.44;5071833;28;20067;-80
2021/09/30 03:46:53;;;;;;;14.23;10.85;;;;;;;12.33;100.00;93780.66;5071983;28;20107;-80
2021/09/30 03:49:27;;;;;;;12.82;11.25;;;;;;;12.16;100.00;93790.63;5051822;28;20370;-81
2021/09/30 03:52:00;;;;;;;13.50;11.07;;;;;;;12.06;100.00;93792.84;5051613;28;20049;-81
2021/09/30 03:54:36;;;;;;;12.30;10.25;;;;;;;11.99;100.00;93795.44;5051637;28;20144;-81
2021/09/30 03:57:09;;;;;;;13.93;10.60;;;;;;;11.87;100.00;93780.63;5051737;28;20431;-82
2021/09/30 03:59:35;;;;;;;14.02;10.90;;;;;;;11.96;100.00;93788.91;5051614;28;20053;-80
2021/09/30 04:02:02;;;;;;;10.75;9.38;;;;;;;11.87;100.00;93780.63;5051845;28;20381;-80
2021/09/30 04:04:33;;;;;;;12.88;11.32;;;;;;;11.89;100.00;93794.06;5051352;28;20496;-80
2021/09/30 04:07:03;;;;;;;14.70;12.07;;;;;;;11.87;100.00;93795.28;5051585;28;20064;-81
2021/09/30 04:09:32;;;;;;;13.68;10.23;;;;;;;11.72;100.00;93790.38;5051528;28;20385;-80
2021/09/30 04:12:00;;;;;;;13.15;10.30;;;;;;;11.68;100.00;93792.56;5051309;28;20305;-79
2021/09/30 04:14:28;;;;;;;13.20;11.38;;;;;;;11.56;100.00;93776.94;5051060;28;20561;-79
2021/09/30 04:16:55;;;;;;;15.30;10.75;;;;;;;11.70;100.00;93806.00;5051176;28;20041;-78
2021/09/30 04:19:23;;;;;;;12.70;10.68;;;;;;;11.63;100.00;93794.94;5051004;28;20488;-80
2021/09/30 04:21:52;;;;;;;13.48;10.13;;;;;;;11.59;100.00;93799.72;5051097;28;20107;-78
2021/09/30 04:24:20;;;;;;;13.48;11.10;;;;;;;11.46;100.00;93790.22;5051275;28;20095;-79
2021/09/30 04:26:49;;;;;;;16.25;12.90;;;;;;;11.34;100.00;93800.31;5050965;28;20131;-80
2021/09/30 04:29:17;;;;;;;15.38;10.57;;;;;;;11.41;100.00;93795.19;5050860;28;20515;-79
2021/09/30 04:31:44;;;;;;;13.32;10.93;;;;;;;11.54;100.00;93791.81;5051128;28;20049;-79
2021/09/30 04:34:11;;;;;;;14.27;11.25;;;;;;;11.67;100.00;93785.03;5050803;28;20118;-78
2021/09/30 04:36:38;;;;;;;15.85;11.02;;;;;;;11.80;100.00;93804.81;5050765;28;20052;-79
2021/09/30 04:39:05;;;;;;;14.40;12.30;;;;;;;11.77;100.00;93809.34;5050435;28;20646;-81
2021/09/30 04:41:33;;;;;;;13.13;10.77;;;;;;;11.60;100.00;93808.19;5050957;28;20048;-83
2021/09/30 04:44:01;;;;;;;13.50;11.10;;;;;;;11.70;100.00;93818.88;5050558;28;20049;-83
2021/09/30 04:46:28;;;;;;;13.88;11.70;;;;;;;11.66;100.00;93819.47;5050717;28;20053;-82
2021/09/30 04:48:55;;;;;;;14.77;11.35;;;;;;;11.70;100.00;93818.06;5050495;28;20045;-81
2021/09/30 04:51:22;;;;;;;15.07;13.07;;;;;;;11.61;100.00;93814.91;5050798;28;20049;-81
2021/09/30 04:53:48;;;;;;;15.75;12.05;;;;;;;11.54;100.00;93820.09;5050536;28;20045;-82
2021/09/30 04:56:16;;;;;;;13.18;11.75;;;;;;;11.61;100.00;93810.56;5050690;28;20049;-81
2021/09/30 04:58:43;;;;;;;15.60;11.90;;;;;;;11.65;100.00;93815.31;5050316;28;20079;-81
2021/09/30 05:01:11;;;;;;;15.00;12.30;;;;;;;11.71;100.00;93820.44;5050468;28;20115;-81
2021/09/30 05:03:38;;;;;;;14.77;12.40;;;;;;;11.69;100.00;93829.38;5050331;28;20052;-81
2021/09/30 05:06:06;;;;;;;15.68;13.43;;;;;;;11.72;100.00;93816.88;5043984;28;20504;-80
2021/09/30 05:08:34;;;;;;;15.57;12.90;;;;;;;11.69;100.00;93812.16;5028706;28;20064;-81
2021/09/30 05:11:02;;;;;;;14.88;12.88;;;;;;;11.77;100.00;93811.16;5029413;28;20071;-81
2021/09/30 05:13:38;;;;;;;16.42;13.43;;;;;;;11.87;100.00;93832.13;5030555;28;20128;-81
2021/09/30 05:16:07;;;;;;;14.38;12.18;;;;;;;11.88;100.00;93817.44;5030138;28;20128;-82
2021/09/30 05:18:36;;;;;;;15.63;12.48;;;;;;;12.03;100.00;93827.50;5029865;28;20112;-81
2021/09/30 05:21:03;;;;;;;15.93;12.00;;;;;;;12.03;100.00;93825.72;5030220;28;20060;-81
2021/09/30 05:23:30;;;;;;;15.95;12.57;;;;;;;12.16;100.00;93835.22;5030243;28;20053;-82
2021/09/30 05:25:57;;;;;;;15.43;12.63;;;;;;;12.03;100.00;93807.69;5030386;28;20048;-82
2021/09/30 05:28:24;;;;;;;14.57;11.68;;;;;;;12.36;100.00;93846.44;5029369;28;20599;-82
2021/09/30 05:30:51;;;;;;;13.13;11.15;;;;;;;12.39;100.00;93833.94;5030125;28;20045;-82
2021/09/30 05:33:19;;;;;;;18.17;13.15;;;;;;;12.46;100.00;93826.19;5030073;28;20057;-81
2021/09/30 05:35:48;;;;;;;15.27;11.57;;;;;;;12.53;100.00;93834.66;5039367;28;20050;-81
2021/09/30 05:38:15;;;;;;;15.20;12.15;;;;;;;12.56;100.00;93841.97;5036328;28;20041;-82
2021/09/30 05:40:41;;;;;;;14.07;11.70;;;;;;;12.61;100.00;93838.00;5029836;28;20064;-81
2021/09/30 05:43:12;;;;;;;14.32;11.77;;;;;;;12.61;100.00;93838.78;5029709;28;20041;-82
2021/09/30 05:45:41;;;;;;;15.05;12.23;;;;;;;12.64;100.00;93845.31;5029976;28;20472;-82
2021/09/30 05:48:08;;;;;;;14.13;11.38;;;;;;;12.64;100.00;93840.94;5029284;28;20080;-80
2021/09/30 05:50:36;;;;;;;14.93;11.43;;;;;;;12.62;100.00;93818.94;5029725;28;20299;-80
2021/09/30 05:53:05;;;;;;;15.38;13.05;;;;;;;12.75;100.00;93831.78;5029662;28;20046;-81
2021/09/30 05:55:31;;;;;;;15.25;12.52;;;;;;;13.02;100.00;93847.09;5029328;28;20045;-80
2021/09/30 05:57:58;;;;;;;16.17;12.38;;;;;;;12.81;100.00;93849.00;5029206;28;20437;-80
2021/09/30 06:00:30;;;;;;;15.10;12.27;;;;;;;12.90;100.00;93841.81;5028972;28;20559;-80
2021/09/30 06:14:13;;;;;;;18.02;15.77;;;;;;;12.60;100.00;93844.94;5016278;28;20049;-80
2021/09/30 06:16:46;;;;;;;19.60;15.15;;;;;;;12.70;100.00;93850.44;5029136;28;20049;-79
2021/09/30 06:19:19;;;;;;;22.02;14.90;;;;;;;12.81;100.00;93843.84;5029297;28;20055;-80
2021/09/30 06:21:46;;;;;;;21.08;15.23;;;;;;;12.89;100.00;93863.44;5029044;28;20168;-78
2021/09/30 06:24:15;;;;;;;18.98;14.90;;;;;;;12.91;100.00;93871.75;5029327;28;20045;-79
2021/09/30 06:26:42;;;;;;;21.35;15.05;;;;;;;12.92;100.00;93852.69;5028960;28;20045;-79
2021/09/30 06:29:09;;;;;;;20.63;15.70;;;;;;;12.96;100.00;93873.69;5029481;28;20143;-79
2021/09/30 06:31:36;;;;;;;21.90;16.70;;;;;;;12.89;100.00;93849.75;5040639;28;20118;-79
2021/09/30 06:34:03;;;;;;;20.58;16.20;;;;;;;13.04;100.00;93857.97;5046946;28;20079;-79
2021/09/30 06:36:30;;;;;;;17.52;15.18;;;;;;;13.06;100.00;93861.13;5049106;28;20057;-79
2021/09/30 06:38:57;;;;;;;20.48;14.45;;;;;;;13.13;100.00;93868.03;5049156;28;20103;-79
2021/09/30 06:41:25;;;;;;;22.27;17.33;;;;;;;13.31;100.00;93869.91;5052816;28;20165;-79
2021/09/30 06:43:51;;;;;;;18.33;15.93;;;;;;;13.27;100.00;93859.22;5052784;28;20053;-79
2021/09/30 06:46:19;;;;;;;22.60;16.40;;;;;;;13.43;100.00;93875.94;5053021;28;20048;-79
2021/09/30 06:48:46;;;;;;;20.92;16.08;;;;;;;13.29;100.00;93856.44;5052599;28;20048;-79
2021/09/30 06:51:12;;;;;;;21.92;17.60;;;;;;;13.40;100.00;93875.59;5052952;28;20051;-79
2021/09/30 06:53:39;;;;;;;22.38;17.63;;;;;;;13.53;100.00;93877.31;5052961;28;20041;-80
2021/09/30 06:56:08;;;;;;;20.85;16.10;;;;;;;13.36;100.00;93886.34;5052540;28;20045;-76
2021/09/30 06:58:41;;;;;;;19.88;15.13;;;;;;;13.48;100.00;93872.78;5052637;28;20049;-76
2021/09/30 07:01:09;;;;;;;21.38;16.35;;;;;;;13.56;100.00;93871.72;5052078;28;20059;-75
2021/09/30 07:03:36;;;;;;;21.08;16.85;;;;;;;13.49;100.00;93879.53;5052539;28;20052;-75
2021/09/30 07:06:04;;;;;;;23.58;17.60;;;;;;;13.64;100.00;93889.53;5052498;28;20492;-75
2021/09/30 07:08:31;;;;;;;21.60;15.73;;;;;;;13.72;100.00;93878.94;5052742;28;20546;-75
2021/09/30 07:10:58;;;;;;;22.70;16.48;;;;;;;13.81;100.00;93873.50;5052344;28;20094;-75
2021/09/30 07:13:25;;;;;;;20.05;15.77;;;;;;;13.98;100.00;93884.06;5052273;28;20079;-75
2021/09/30 07:15:54;;;;;;;21.20;14.73;;;;;;;13.95;100.00;93876.72;5052532;28;20136;-75
2021/09/30 07:18:21;;;;;;;18.85;15.02;;;;;;;14.10;100.00;93887.53;5052457;28;20103;-75
2021/09/30 07:20:50;;;;;;;21.52;15.55;;;;;;;14.21;100.00;93883.41;5043022;28;20122;-75
2021/09/30 07:23:17;;;;;;;21.73;16.73;;;;;;;14.37;100.00;93891.59;5037351;28;20049;-75
2021/09/30 07:25:43;;;;;;;20.67;16.13;;;;;;;14.46;100.00;93890.31;5040069;28;20049;-76
2021/09/30 07:28:10;;;;;;;20.80;15.98;;;;;;;14.59;100.00;93886.78;5040965;28;20142;-76
2021/09/30 07:30:37;;;;;;;22.23;16.25;;;;;;;14.64;100.00;93886.94;5038902;28;20055;-76
2021/09/30 07:33:08;;;;;;;21.02;15.15;;;;;;;14.74;100.00;93888.19;5043145;28;20053;-75
2021/09/30 07:35:35;;;;;;;19.42;15.63;;;;;;;14.79;100.00;93888.34;5037146;28;20099;-76
2021/09/30 07:38:02;;;;;;;20.10;15.60;;;;;;;14.81;99.76;93894.88;5039872;28;20041;-76
2021/09/30 07:40:31;;;;;;;19.45;15.48;;;;;;;14.78;98.58;93885.00;5039818;28;20045;-75
2021/09/30 07:42:58;;;;;;;23.15;15.95;;;;;;;14.85;99.86;93882.31;5033557;28;20052;-75
2021/09/30 07:45:25;;;;;;;23.00;15.40;;;;;;;14.93;99.60;93889.78;5031641;28;20463;-76
2021/09/30 07:47:52;;;;;;;21.75;15.45;;;;;;;15.02;99.74;93895.44;5032105;28;20103;-76
2021/09/30 07:50:20;;;;;;;26.48;17.45;;;;;;;15.04;99.02;93895.22;5039031;28;20091;-76
2021/09/30 07:52:47;;;;;;;23.80;16.83;;;;;;;15.03;98.33;93894.41;5044686;28;20448;-76
2021/09/30 07:55:14;;;;;;;22.67;15.48;;;;;;;15.05;99.31;93894.97;5041673;28;20062;-76
2021/09/30 07:57:41;;;;;;;24.08;15.95;;;;;;;15.09;99.06;93903.09;5045187;28;20045;-76
2021/09/30 08:00:08;;;;;;;23.42;17.48;;;;;;;15.14;98.51;93900.63;5039398;28;20045;-76
2021/09/30 08:02:35;;;;;;;24.52;17.48;;;;;;;15.16;97.34;93903.78;5042177;28;20099;-76
2021/09/30 08:05:02;;;;;;;24.13;17.98;;;;;;;15.10;97.66;93896.91;5042518;28;20045;-76
2021/09/30 08:07:30;;;;;;;26.40;19.73;;;;;;;15.17;98.34;93902.78;5040463;28;20056;-76
2021/09/30 08:09:57;;;;;;;24.00;17.25;;;;;;;15.19;97.89;93903.34;5037741;28;20041;-76
2021/09/30 08:12:25;;;;;;;23.67;17.70;;;;;;;15.22;97.61;93900.31;5031704;28;20053;-76
2021/09/30 08:14:52;;;;;;;24.63;17.60;;;;;;;15.25;97.69;93906.06;5031432;28;20440;-76
2021/09/30 08:17:18;;;;;;;21.52;16.45;;;;;;;15.12;97.29;93881.94;5031504;28;20057;-75
2021/09/30 08:19:46;;;;;;;22.77;16.00;;;;;;;15.30;97.68;93901.00;5030887;28;20053;-75
2021/09/30 08:22:12;;;;;;;21.42;16.02;;;;;;;15.19;96.31;93903.34;5031138;28;20053;-75
2021/09/30 08:24:41;;;;;;;23.23;16.40;;;;;;;15.17;98.02;93901.97;5031266;28;20187;-76
2021/09/30 08:27:09;;;;;;;23.80;17.98;;;;;;;15.18;97.37;93903.56;5031204;28;20159;-75
2021/09/30 08:29:38;;;;;;;24.30;17.25;;;;;;;15.22;98.26;93900.31;5031279;28;20053;-75
2021/09/30 08:32:06;;;;;;;25.30;17.08;;;;;;;15.19;96.81;93903.34;5031019;28;20053;-76
2021/09/30 08:34:33;;;;;;;24.80;17.88;;;;;;;15.25;97.38;93912.03;5031295;28;20057;-75
2021/09/30 08:37:00;;;;;;;26.58;18.35;;;;;;;15.32;96.55;93907.53;5030891;28;20042;-76
2021/09/30 08:39:27;;;;;;;23.75;17.83;;;;;;;15.49;96.17;93906.91;5030596;28;20041;-75
2021/09/30 08:41:56;;;;;;;24.63;16.38;;;;;;;15.58;95.13;93913.34;5030700;28;20049;-76
2021/09/30 08:44:24;;;;;;;24.65;17.77;;;;;;;15.74;94.78;93904.09;5030648;28;20136;-76
2021/09/30 08:46:50;;;;;;;25.25;15.85;;;;;;;15.72;94.55;93907.94;5030743;28;20045;-76
2021/09/30 08:49:17;;;;;;;29.38;20.30;;;;;;;15.90;94.30;93914.81;5030586;28;20179;-76
2021/09/30 08:51:44;;;;;;;20.88;15.70;;;;;;;15.63;93.38;93915.25;5030827;28;20050;-76
2021/09/30 08:54:11;;;;;;;20.00;16.38;;;;;;;15.38;93.51;93911.06;5030419;28;20049;-76
2021/09/30 08:56:38;;;;;;;25.42;18.27;;;;;;;15.48;94.08;93911.31;5030796;28;20420;-76
2021/09/30 08:59:17;;;;;;;24.02;17.05;;;;;;;15.80;94.59;93909.41;5030255;28;20046;-76
2021/09/30 09:02:03;;;;;;;21.42;13.93;;;;;;;15.90;92.63;93907.84;5029998;28;20056;-75
2021/09/30 09:04:30;;;;;;;17.77;14.45;;;;;;;16.12;90.13;93899.50;5030607;28;20132;-76
2021/09/30 09:07:05;;;;;;;20.23;13.68;;;;;;;16.07;88.64;93904.59;5030719;28;20049;-76
2021/09/30 09:09:32;;;;;;;24.58;16.67;;;;;;;16.36;92.01;93894.31;5030439;28;20103;-76
2021/09/30 09:12:05;;;;;;;24.63;16.33;;;;;;;16.76;91.23;93892.72;5030597;28;20052;-76
2021/09/30 09:14:35;;;;;;;23.40;15.35;;;;;;;17.08;88.53;93902.66;5030336;28;20052;-76
2021/09/30 09:17:04;;;;;;;22.63;14.50;;;;;;;17.33;87.92;93883.38;5030339;28;20053;-75
2021/09/30 09:19:34;;;;;;;19.55;14.02;;;;;;;17.60;86.18;93900.91;5030581;28;20049;-76
2021/09/30 09:22:05;;;;;;;20.80;13.65;;;;;;;17.84;83.83;93895.56;5030325;28;20053;-76
2021/09/30 09:24:32;;;;;;;19.42;13.15;;;;;;;18.01;83.34;93884.38;5030325;28;20120;-76
2021/09/30 09:27:00;;;;;;;151.48;83.90;;;;;;;18.29;82.52;93898.28;5029874;28;20563;-76
2021/09/30 09:29:31;;;;;;;26.15;17.00;;;;;;;18.18;80.08;93870.56;5029847;28;20053;-76
2021/09/30 09:32:06;;;;;;;22.75;14.82;;;;;;;18.46;80.30;93892.25;5030216;28;20093;-76
2021/09/30 09:34:36;;;;;;;15.73;11.75;;;;;;;17.95;77.71;93867.91;5030233;28;20052;-76
2021/09/30 09:37:32;;;;;;;15.63;11.43;;;;;;;18.03;79.23;93892.69;5030216;28;20048;-76
2021/09/30 09:40:00;;;;;;;14.70;10.35;;;;;;;17.33;79.89;93883.38;4995200;28;20072;-76
2021/09/30 09:42:30;;;;;;;19.95;12.88;;;;;;;17.60;81.70;93893.13;5029535;28;20041;-76
2021/09/30 09:44:58;;;;;;;15.63;10.65;;;;;;;17.59;80.79;93873.38;5043032;28;20571;-76
2021/09/30 09:47:29;;;;;;;14.15;11.18;;;;;;;17.67;82.45;93887.78;5048086;28;20118;-76
2021/09/30 09:50:17;;;;;;;17.85;11.52;;;;;;;17.56;83.07;93892.03;5049696;28;20041;-76
2021/09/30 09:52:46;;;;;;;19.65;12.45;;;;;;;17.49;82.86;93896.59;5049175;28;20413;-76
2021/09/30 09:55:18;;;;;;;19.45;13.40;;;;;;;17.54;83.41;93886.28;5038305;28;20083;-76
2021/09/30 09:58:03;;;;;;;23.45;15.70;;;;;;;17.75;83.70;93900.38;5039264;28;20053;-76
2021/09/30 10:00:31;;;;;;;37.20;22.42;;;;;;;17.55;84.72;93892.25;5038802;28;20465;-76
2021/09/30 10:03:11;;;;;;;21.02;14.07;;;;;;;17.36;83.31;93869.91;5038585;28;20045;-76
2021/09/30 10:05:38;;;;;;;20.00;12.55;;;;;;;17.08;85.56;93879.31;5037660;28;20046;-76
2021/09/30 10:08:06;;;;;;;17.95;11.95;;;;;;;17.35;85.64;93888.31;5040643;28;20092;-76
2021/09/30 10:10:34;;;;;;;34.95;26.05;;;;;;;17.46;85.59;93886.69;5044092;28;20182;-76
2021/09/30 10:13:01;;;;;;;17.58;13.77;;;;;;;17.58;85.32;93886.59;5035390;28;20046;-76
2021/09/30 10:15:29;;;;;;;16.25;12.90;;;;;;;17.57;83.68;93880.63;5031047;28;20080;-75
2021/09/30 10:17:56;;;;;;;18.73;11.50;;;;;;;17.34;83.60;93884.94;5049270;28;20057;-76
2021/09/30 10:20:25;;;;;;;16.77;11.68;;;;;;;17.34;84.37;93894.53;5049277;28;20118;-75
2021/09/30 10:22:53;;;;;;;17.30;12.13;;;;;;;17.32;84.92;93894.00;5049301;28;20048;-76
2021/09/30 10:25:20;;;;;;;16.10;12.68;;;;;;;17.34;85.36;93884.13;5048983;28;20095;-76
2021/09/30 10:27:55;;;;;;;14.38;10.52;;;;;;;17.31;84.42;93888.00;5048832;28;20087;-76
2021/09/30 10:30:32;;;;;;;8.93;7.38;;;;;;;17.33;78.78;93891.16;5049278;28;20084;-76
2021/09/30 10:33:00;;;;;;;14.13;10.57;;;;;;;17.49;82.70;93878.41;5048985;28;20045;-76
2021/09/30 10:35:38;;;;;;;16.55;10.55;;;;;;;17.11;81.17;93882.47;5049057;28;20049;-76
2021/09/30 10:38:24;;;;;;;8.45;6.72;;;;;;;16.49;79.89;93887.28;5048769;28;20094;-76
2021/09/30 10:41:09;;;;;;;10.25;8.13;;;;;;;16.60;81.43;93880.47;5048817;28;20048;-75
2021/09/30 10:43:41;;;;;;;12.30;7.63;;;;;;;16.70;80.01;93881.47;5044785;28;20061;-75
2021/09/30 10:46:10;;;;;;;10.90;6.35;;;;;;;16.17;80.65;93884.06;5046652;28;20244;-75
2021/09/30 10:48:41;;;;;;;9.75;7.30;;;;;;;16.09;81.39;93888.81;5049080;28;20128;-75
2021/09/30 10:51:12;;;;;;;9.02;7.22;;;;;;;16.23;82.68;93884.19;5048846;28;20151;-76
2021/09/30 10:54:00;;;;;;;9.50;7.60;;;;;;;16.65;81.93;93878.78;5048659;28;20053;-76
2021/09/30 10:56:40;;;;;;;8.93;7.55;;;;;;;16.71;79.64;93877.06;5048822;28;20054;-75
2021/09/30 10:59:41;;;;;;;10.23;7.03;;;;;;;17.03;79.44;93881.03;5048560;28;20060;-75
2021/09/30 11:02:12;;;;;;;10.65;7.80;;;;;;;17.33;78.11;93887.75;5048644;28;20057;-75
2021/09/30 11:05:04;;;;;;;8.60;6.25;;;;;;;16.64;77.98;93889.38;5048694;28;20123;-75
2021/09/30 11:07:32;;;;;;;7.55;5.93;;;;;;;15.87;80.90;93879.00;5044215;28;20053;-75
2021/09/30 11:10:22;;;;;;;8.43;6.63;;;;;;;15.99;81.41;93856.50;5048729;28;20091;-76
2021/09/30 11:13:18;;;;;;;10.80;7.03;;;;;;;16.32;80.89;93885.41;5048473;28;20047;-76
2021/09/30 11:16:01;;;;;;;11.30;7.40;;;;;;;16.26;80.89;93881.91;5048354;28;20049;-76
2021/09/30 11:18:49;;;;;;;11.73;7.63;;;;;;;16.36;81.38;93880.56;5048547;28;20059;-76
2021/09/30 11:21:49;;;;;;;11.93;7.75;;;;;;;15.88;81.00;93878.00;5048460;28;20053;-76
2021/09/30 11:24:49;;;;;;;9.00;6.95;;;;;;;15.88;83.46;93876.19;5006327;28;20109;-76
2021/09/30 11:27:30;;;;;;;9.32;6.40;;;;;;;15.59;82.08;93876.06;5005021;28;20060;-76
2021/09/30 11:30:21;;;;;;;9.02;5.97;;;;;;;15.95;83.93;93872.72;5042027;28;20053;-76
2021/09/30 11:32:48;;;;;;;11.55;7.78;;;;;;;15.94;83.96;93869.34;5052032;28;20119;-76
2021/09/30 11:35:15;;;;;;;9.63;6.88;;;;;;;15.88;84.01;93865.81;5052444;28;20139;-75
2021/09/30 11:37:46;;;;;;;10.98;7.07;;;;;;;16.19;84.22;93863.09;5052285;28;20053;-76
2021/09/30 11:40:17;;;;;;;13.00;7.20;;;;;;;16.31;80.85;93865.69;5051653;28;20099;-76
2021/09/30 11:42:47;;;;;;;7.85;5.97;;;;;;;16.64;81.13;93863.44;5051885;28;20370;-76
2021/09/30 11:45:16;;;;;;;8.73;6.43;;;;;;;16.92;80.65;93861.88;5051766;28;20554;-76
2021/09/30 11:47:46;;;;;;;7.95;5.45;;;;;;;16.82;78.18;93868.44;5051621;28;20052;-76
2021/09/30 11:50:19;;;;;;;7.43;5.85;;;;;;;16.82;81.72;93865.84;5051525;28;20045;-75
2021/09/30 11:52:56;;;;;;;9.27;7.15;;;;;;;16.76;79.86;93850.44;5051650;28;20049;-76
2021/09/30 11:55:27;;;;;;;11.63;8.50;;;;;;;16.67;80.27;93863.78;5051814;28;20052;-77
2021/09/30 11:57:57;;;;;;;12.20;7.40;;;;;;;16.30;80.91;93859.72;5051467;28;20591;-77
2021/09/30 12:00:24;;;;;;;10.43;7.03;;;;;;;16.28;81.74;93855.75;5051178;28;20544;-76
2021/09/30 12:02:56;;;;;;;9.60;6.75;;;;;;;16.64;82.48;93858.25;5051696;28;20106;-76
2021/09/30 12:05:25;;;;;;;10.02;7.03;;;;;;;16.57;80.15;93848.00;5051419;28;20504;-77
2021/09/30 12:07:52;;;;;;;9.80;6.35;;;;;;;16.52;80.18;93855.72;5051392;28;20135;-76
2021/09/30 12:10:19;;;;;;;8.48;6.22;;;;;;;16.81;79.86;93843.53;5051213;28;20044;-76
2021/09/30 12:12:48;;;;;;;8.27;6.43;;;;;;;17.00;78.77;93850.31;5051140;28;20056;-76
2021/09/30 12:15:15;;;;;;;10.63;6.65;;;;;;;17.08;78.94;93850.75;5051596;28;20049;-76
2021/09/30 12:17:43;;;;;;;14.60;7.75;;;;;;;16.99;79.49;93849.53;5051354;28;20053;-76
2021/09/30 12:20:12;;;;;;;11.57;7.13;;;;;;;17.07;79.31;93843.19;5051071;28;20140;-76
2021/09/30 12:22:43;;;;;;;9.35;5.90;;;;;;;16.74;78.25;93836.91;5051021;28;20140;-76
2021/09/30 12:25:11;;;;;;;7.72;6.13;;;;;;;16.84;78.84;93839.69;5050916;28;20059;-76
2021/09/30 12:27:42;;;;;;;9.93;6.93;;;;;;;16.66;79.44;93844.03;5050964;28;20088;-76
2021/09/30 12:30:13;;;;;;;10.45;7.00;;;;;;;16.58;78.58;93841.03;5050621;28;20049;-76
2021/09/30 12:32:42;;;;;;;9.80;7.03;;;;;;;16.42;80.83;93840.75;5048825;28;20438;-76
2021/09/30 12:35:11;;;;;;;11.18;6.40;;;;;;;16.23;80.06;93822.75;5050704;28;20075;-77
2021/09/30 12:37:46;;;;;;;11.75;6.90;;;;;;;16.51;79.94;93839.38;5050129;28;20045;-79
2021/09/30 12:40:16;;;;;;;13.00;7.85;;;;;;;16.80;81.22;93826.38;5046471;28;20397;-78
2021/09/30 12:42:58;;;;;;;9.20;5.47;;;;;;;16.38;77.80;93837.06;5044537;28;20048;-78
2021/09/30 12:45:27;;;;;;;7.25;4.45;;;;;;;15.68;80.53;93835.09;5049444;28;20055;-77
2021/09/30 12:48:02;;;;;;;5.13;4.07;;;;;;;15.52;82.43;93833.16;5050703;28;20045;-77
2021/09/30 12:50:45;;;;;;;8.93;5.63;;;;;;;15.28;84.84;93825.38;5050468;28;20048;-77
2021/09/30 12:53:14;;;;;;;5.90;4.95;;;;;;;14.89;87.67;93825.75;5050835;28;20045;-77
2021/09/30 12:55:41;;;;;;;9.32;5.82;;;;;;;15.24;86.90;93827.63;5050758;28;20110;-77
2021/09/30 12:58:27;;;;;;;8.07;5.57;;;;;;;15.25;86.57;93828.41;5050230;28;20041;-77
2021/09/30 13:00:57;;;;;;;8.55;5.82;;;;;;;15.06;87.76;93826.72;5050363;28;20136;-77
2021/09/30 13:03:24;;;;;;;9.52;5.95;;;;;;;15.02;87.59;93828.16;5050499;28;20144;-77
2021/09/30 13:05:53;;;;;;;7.40;5.40;;;;;;;14.72;88.70;93830.75;5050575;28;20412;-77
2021/09/30 13:08:42;;;;;;;10.13;5.85;;;;;;;14.59;88.41;93831.69;5050326;28;20045;-77
2021/09/30 13:11:27;;;;;;;8.43;5.75;;;;;;;14.57;89.12;93827.53;5050079;28;20048;-77
2021/09/30 13:14:23;;;;;;;12.05;6.20;;;;;;;14.51;88.23;93830.22;5050524;28;20463;-77
2021/09/30 13:16:54;;;;;;;9.38;6.20;;;;;;;14.33;89.57;93828.44;5049893;28;20447;-77
2021/09/30 13:19:41;;;;;;;8.60;6.70;;;;;;;14.50;89.79;93806.16;5050252;28;20045;-77
2021/09/30 13:22:08;;;;;;;9.40;6.82;;;;;;;14.54;88.80;93829.78;5050203;28;20053;-77
2021/09/30 13:24:37;;;;;;;9.02;6.43;;;;;;;14.20;89.64;93817.25;5050034;28;20045;-77
2021/09/30 13:27:04;;;;;;;8.75;6.43;;;;;;;14.18;91.28;93834.78;5050305;28;20048;-77
2021/09/30 13:29:31;;;;;;;10.52;6.57;;;;;;;14.12;91.53;93823.50;5050257;28;20393;-77
2021/09/30 13:31:59;;;;;;;8.32;6.85;;;;;;;14.14;91.23;93811.16;5050218;28;20044;-77
2021/09/30 13:34:26;;;;;;;10.75;7.28;;;;;;;14.09;91.87;93816.19;5049960;28;20098;-78
2021/09/30 13:36:53;;;;;;;9.50;7.38;;;;;;;14.12;92.54;93815.75;5049823;28;20049;-77
2021/09/30 13:39:20;;;;;;;9.30;6.68;;;;;;;14.08;92.29;93811.25;5049758;28;20463;-77
2021/09/30 13:41:47;;;;;;;9.60;7.43;;;;;;;13.96;92.87;93813.75;5049547;28;20052;-77
2021/09/30 13:44:14;;;;;;;8.93;7.07;;;;;;;14.05;93.01;93812.47;5049747;28;20416;-77
2021/09/30 13:46:41;;;;;;;11.10;7.43;;;;;;;14.10;92.25;93812.59;5049561;28;20045;-77
2021/09/30 13:49:09;;;;;;;12.00;7.18;;;;;;;14.10;92.76;93814.38;5049077;28;20041;-77
2021/09/30 13:51:36;;;;;;;10.35;7.72;;;;;;;13.96;93.54;93808.56;5049910;28;20053;-77
2021/09/30 13:54:02;;;;;;;13.07;7.80;;;;;;;14.05;93.30;93811.66;5049521;28;20044;-77